createdAt,value
2022-11-15T00:01:23.775Z,100.00
2022-11-15T00:03:52.800Z,100.00
2022-11-15T00:06:21.185Z,100.00
2022-11-15T00:08:49.562Z,100.00
2022-11-15T00:11:18.247Z,100.00
2022-11-15T00:13:46.609Z,100.00
2022-11-15T00:16:14.972Z,100.00
2022-11-15T00:18:47.820Z,100.00
2022-11-15T00:21:19.101Z,100.00
2022-11-15T00:23:47.413Z,100.00
2022-11-15T00:26:16.471Z,100.00
2022-11-15T00:28:45.067Z,100.00
2022-11-15T00:31:15.250Z,100.00
2022-11-15T00:33:46.290Z,100.00
2022-11-15T00:36:14.715Z,100.00
2022-11-15T00:38:43.142Z,100.00
2022-11-15T00:41:11.496Z,100.00
2022-11-15T00:43:41.155Z,100.00
2022-11-15T00:46:10.959Z,100.00
2022-11-15T00:48:39.354Z,100.00
2022-11-15T00:51:07.760Z,100.00
2022-11-15T00:53:36.111Z,100.00
2022-11-15T00:56:04.929Z,100.00
2022-11-15T00:58:33.333Z,100.00
2022-11-15T01:01:13.999Z,100.00
2022-11-15T01:03:43.129Z,100.00
2022-11-15T01:06:12.716Z,100.00
2022-11-15T01:08:41.273Z,100.00
2022-11-15T01:11:13.089Z,100.00
2022-11-15T01:13:41.671Z,100.00
2022-11-15T01:16:14.281Z,100.00
2022-11-15T01:18:42.680Z,100.00
2022-11-15T01:21:15.191Z,100.00
2022-11-15T01:23:43.635Z,100.00
2022-11-15T01:26:15.944Z,100.00
2022-11-15T01:28:44.294Z,100.00
2022-11-15T01:31:17.912Z,100.00
2022-11-15T01:33:47.518Z,100.00
2022-11-15T01:36:20.300Z,100.00
2022-11-15T01:38:56.405Z,100.00
2022-11-15T01:41:30.191Z,100.00
2022-11-15T01:44:41.388Z,100.00
2022-11-15T01:47:21.609Z,100.00
2022-11-15T01:50:05.159Z,100.00
2022-11-15T01:52:36.713Z,100.00
2022-11-15T01:55:19.548Z,100.00
2022-11-15T01:57:54.207Z,100.00
2022-11-15T02:00:22.689Z,100.00
2022-11-15T02:02:51.701Z,100.00
2022-11-15T02:13:52.847Z,100.00
2022-11-15T02:16:55.689Z,100.00
2022-11-15T02:19:33.234Z,100.00
2022-11-15T02:22:53.474Z,100.00
2022-11-15T02:25:42.076Z,100.00
2022-11-15T02:28:47.566Z,100.00
2022-11-15T02:31:48.324Z,100.00
2022-11-15T02:34:53.930Z,100.00
2022-11-15T02:37:38.043Z,100.00
2022-11-15T02:40:35.013Z,100.00
2022-11-15T02:43:32.317Z,100.00
2022-11-15T02:47:04.935Z,100.00
2022-11-15T02:49:38.668Z,100.00
2022-11-15T02:52:06.948Z,100.00
2022-11-15T02:54:36.484Z,100.00
2022-11-15T02:57:21.112Z,100.00
2022-11-15T03:00:04.668Z,100.00
2022-11-15T03:02:51.432Z,100.00
2022-11-15T03:06:05.065Z,100.00
2022-11-15T03:08:48.627Z,100.00
2022-11-15T03:11:20.609Z,100.00
2022-11-15T03:14:20.283Z,100.00
2022-11-15T03:17:24.314Z,100.00
2022-11-15T03:19:56.872Z,100.00
2022-11-15T03:22:28.978Z,100.00
2022-11-15T03:25:03.351Z,100.00
2022-11-15T03:27:39.071Z,100.00
2022-11-15T03:30:10.117Z,100.00
2022-11-15T03:32:47.746Z,100.00
2022-11-15T03:35:22.200Z,100.00
2022-11-15T03:38:09.621Z,100.00
2022-11-15T03:40:53.093Z,100.00
2022-11-15T03:43:53.276Z,100.00
2022-11-15T03:46:29.828Z,100.00
2022-11-15T03:49:10.401Z,100.00
2022-11-15T03:51:39.129Z,100.00
2022-11-15T03:54:07.887Z,100.00
2022-11-15T03:56:36.190Z,100.00
2022-11-15T03:59:04.802Z,100.00
2022-11-15T04:01:33.168Z,100.00
2022-11-15T04:04:01.659Z,100.00
2022-11-15T04:06:29.996Z,100.00
2022-11-15T04:08:58.468Z,100.00
2022-11-15T04:11:26.756Z,100.00
2022-11-15T04:13:55.069Z,100.00
2022-11-15T04:16:23.455Z,100.00
2022-11-15T04:19:11.769Z,100.00
2022-11-15T04:21:58.794Z,100.00
2022-11-15T04:24:27.125Z,100.00
2022-11-15T04:26:55.467Z,100.00
2022-11-15T04:29:35.619Z,100.00
2022-11-15T04:32:07.388Z,100.00
2022-11-15T04:34:36.278Z,100.00
2022-11-15T04:37:13.769Z,100.00
2022-11-15T04:39:43.520Z,100.00
2022-11-15T04:42:12.365Z,100.00
2022-11-15T04:44:40.743Z,100.00
2022-11-15T04:47:09.066Z,100.00
2022-11-15T04:49:37.442Z,100.00
2022-11-15T04:52:05.923Z,100.00
2022-11-15T04:54:34.296Z,100.00
2022-11-15T04:57:02.613Z,100.00
2022-11-15T04:59:30.958Z,100.00
2022-11-15T05:01:59.280Z,100.00
2022-11-15T05:04:27.677Z,100.00
2022-11-15T05:06:56.015Z,100.00
2022-11-15T05:09:24.331Z,100.00
2022-11-15T05:11:52.659Z,100.00
2022-11-15T05:14:21.065Z,100.00
2022-11-15T05:16:50.259Z,100.00
2022-11-15T05:19:18.743Z,100.00
2022-11-15T05:21:48.222Z,100.00
2022-11-15T05:24:16.594Z,100.00
2022-11-15T05:26:44.869Z,100.00
2022-11-15T05:29:13.273Z,100.00
2022-11-15T05:31:42.710Z,100.00
2022-11-15T05:34:11.246Z,100.00
2022-11-15T05:36:43.743Z,100.00
2022-11-15T05:39:12.297Z,100.00
2022-11-15T05:41:46.956Z,100.00
2022-11-15T05:44:19.094Z,100.00
2022-11-15T05:46:50.144Z,100.00
2022-11-15T05:49:23.013Z,100.00
2022-11-15T05:51:53.870Z,100.00
2022-11-15T05:54:24.447Z,100.00
2022-11-15T05:56:53.640Z,100.00
2022-11-15T05:59:22.446Z,100.00
2022-11-15T06:01:51.021Z,100.00
2022-11-15T06:04:19.408Z,100.00
2022-11-15T06:06:47.762Z,100.00
2022-11-15T06:09:16.095Z,100.00
2022-11-15T06:11:44.431Z,100.00
2022-11-15T06:14:12.785Z,100.00
2022-11-15T06:16:41.261Z,100.00
2022-11-15T06:19:09.561Z,100.00
2022-11-15T06:21:38.002Z,100.00
2022-11-15T06:24:07.288Z,100.00
2022-11-15T06:26:35.579Z,100.00
2022-11-15T06:29:05.739Z,100.00
2022-11-15T06:31:35.608Z,100.00
2022-11-15T06:34:03.918Z,100.00
2022-11-15T06:36:35.448Z,100.00
2022-11-15T06:39:06.875Z,100.00
2022-11-15T06:41:36.884Z,100.00
2022-11-15T06:44:05.206Z,100.00
2022-11-15T06:46:33.505Z,100.00
2022-11-15T06:49:08.244Z,100.00
2022-11-15T06:51:38.122Z,100.00
2022-11-15T06:54:06.482Z,100.00
2022-11-15T06:56:35.102Z,100.00
2022-11-15T06:59:03.635Z,100.00
2022-11-15T07:01:31.928Z,100.00
2022-11-15T07:04:00.314Z,100.00
2022-11-15T07:06:28.641Z,100.00
2022-11-15T07:08:57.133Z,100.00
2022-11-15T07:11:25.481Z,100.00
2022-11-15T07:13:53.768Z,100.00
2022-11-15T07:16:22.097Z,100.00
2022-11-15T07:18:50.363Z,100.00
2022-11-15T07:21:21.262Z,100.00
2022-11-15T07:23:52.447Z,100.00
2022-11-15T07:26:20.925Z,100.00
2022-11-15T07:28:49.301Z,100.00
2022-11-15T07:31:17.659Z,100.00
2022-11-15T07:33:46.093Z,100.00
2022-11-15T07:36:14.442Z,100.00
2022-11-15T07:38:43.330Z,100.00
2022-11-15T07:41:11.761Z,100.00
2022-11-15T07:43:40.252Z,100.00
2022-11-15T07:46:10.616Z,100.00
2022-11-15T07:48:44.378Z,100.00
2022-11-15T07:51:17.889Z,100.00
2022-11-15T07:53:46.353Z,100.00
2022-11-15T07:56:14.962Z,100.00
2022-11-15T07:58:43.311Z,100.00
2022-11-15T08:01:11.999Z,100.00
2022-11-15T08:03:40.437Z,100.00
2022-11-15T08:06:08.845Z,100.00
2022-11-15T08:08:37.157Z,100.00
2022-11-15T08:11:05.640Z,100.00
2022-11-15T08:13:34.511Z,100.00
2022-11-15T08:16:06.435Z,100.00
2022-11-15T08:18:35.736Z,100.00
2022-11-15T08:21:04.905Z,100.00
2022-11-15T08:23:33.650Z,100.00
2022-11-15T08:26:06.665Z,100.00
2022-11-15T08:28:34.970Z,100.00
2022-11-15T08:31:05.086Z,100.00
2022-11-15T08:33:36.510Z,100.00
2022-11-15T08:36:06.648Z,100.00
2022-11-15T08:38:35.281Z,100.00
2022-11-15T08:41:07.094Z,100.00
2022-11-15T08:43:35.670Z,100.00
2022-11-15T08:46:04.269Z,100.00
2022-11-15T08:48:32.915Z,100.00
2022-11-15T08:51:01.534Z,100.00
2022-11-15T08:53:29.838Z,100.00
2022-11-15T08:55:58.239Z,100.00
2022-11-15T08:58:26.703Z,100.00
2022-11-15T09:00:56.362Z,100.00
2022-11-15T09:03:26.199Z,100.00
2022-11-15T09:06:00.129Z,100.00
2022-11-15T09:08:47.029Z,100.00
2022-11-15T09:11:19.053Z,100.00
2022-11-15T09:13:47.521Z,100.00
2022-11-15T09:16:16.416Z,100.00
2022-11-15T09:18:44.894Z,100.00
2022-11-15T09:21:13.753Z,100.00
2022-11-15T09:23:42.672Z,100.00
2022-11-15T09:26:11.107Z,100.00
2022-11-15T09:28:42.712Z,100.00
2022-11-15T09:31:11.345Z,100.00
2022-11-15T09:33:39.751Z,100.00
2022-11-15T09:36:10.314Z,100.00
2022-11-15T09:38:39.017Z,100.00
2022-11-15T09:41:13.470Z,100.00
2022-11-15T09:44:25.128Z,100.00
2022-11-15T09:47:50.675Z,100.00
2022-11-15T09:50:37.680Z,100.00
2022-11-15T09:53:10.804Z,100.00
2022-11-15T09:56:01.443Z,100.00
2022-11-15T09:59:19.076Z,100.00
2022-11-15T10:02:05.735Z,100.00
2022-11-15T10:04:34.230Z,100.00
2022-11-15T10:07:14.234Z,100.00
2022-11-15T10:10:09.516Z,100.00
2022-11-15T10:12:49.958Z,100.00
2022-11-15T10:15:23.888Z,100.00
2022-11-15T10:18:07.564Z,100.00
2022-11-15T10:21:00.401Z,100.00
2022-11-15T10:23:30.112Z,100.00
2022-11-15T10:26:06.420Z,100.00
2022-11-15T10:37:46.800Z,99.82
2022-11-15T10:40:25.243Z,99.70
2022-11-15T10:43:12.060Z,99.79
2022-11-15T10:45:40.505Z,99.19
2022-11-15T10:48:14.767Z,98.51
2022-11-15T10:50:46.962Z,98.05
2022-11-15T10:53:27.733Z,97.38
2022-11-15T10:56:06.421Z,96.95
2022-11-15T10:58:43.981Z,96.98
2022-11-15T11:01:18.982Z,97.09
2022-11-15T11:04:03.572Z,96.51
2022-11-15T11:06:53.847Z,95.52
2022-11-15T11:09:36.535Z,95.29
2022-11-15T11:12:10.865Z,94.81
2022-11-15T11:14:40.599Z,94.45
2022-11-15T11:17:36.358Z,94.21
2022-11-15T11:20:41.572Z,93.47
2022-11-15T11:23:34.699Z,92.64
2022-11-15T11:26:32.414Z,92.14
2022-11-15T11:29:15.468Z,91.44
2022-11-15T11:32:02.163Z,91.17
2022-11-15T11:34:52.353Z,90.71
2022-11-15T11:38:07.298Z,90.21
2022-11-15T11:40:48.814Z,89.48
2022-11-15T11:43:41.911Z,89.06
2022-11-15T11:47:01.652Z,88.20
2022-11-15T11:49:54.977Z,87.79
2022-11-15T11:52:32.219Z,87.60
2022-11-15T11:55:20.398Z,87.17
2022-11-15T11:57:59.950Z,86.72
2022-11-15T12:00:30.083Z,86.56
2022-11-15T12:03:19.941Z,86.13
2022-11-15T12:05:56.094Z,85.71
2022-11-15T12:08:42.722Z,85.70
2022-11-15T12:11:39.720Z,85.44
2022-11-15T12:14:28.374Z,84.87
2022-11-15T12:16:58.392Z,85.34
2022-11-15T12:19:27.934Z,85.50
2022-11-15T12:22:24.291Z,85.60
2022-11-15T12:25:16.979Z,85.88
2022-11-15T12:28:02.697Z,86.09
2022-11-15T12:30:46.849Z,86.11
2022-11-15T12:33:36.446Z,86.00
2022-11-15T12:36:38.125Z,86.21
2022-11-15T12:39:15.775Z,86.50
2022-11-15T12:42:05.169Z,86.59
2022-11-15T12:44:33.898Z,86.51
2022-11-15T12:47:23.345Z,86.49
2022-11-15T12:49:52.899Z,86.75
2022-11-15T12:52:21.424Z,87.12
2022-11-15T12:54:54.725Z,87.44
2022-11-15T12:57:31.573Z,87.18
2022-11-15T13:00:25.428Z,87.17
2022-11-15T13:03:19.999Z,87.30
2022-11-15T13:05:58.919Z,87.41
2022-11-15T13:08:48.706Z,87.24
2022-11-15T13:12:10.074Z,87.16
2022-11-15T13:14:38.511Z,87.46
2022-11-15T13:17:34.477Z,87.40
2022-11-15T13:20:24.939Z,87.53
2022-11-15T13:23:09.918Z,87.59
2022-11-15T13:26:06.813Z,87.64
2022-11-15T13:28:50.668Z,87.81
2022-11-15T13:31:41.543Z,88.06
2022-11-15T13:34:50.445Z,88.21
2022-11-15T13:37:22.796Z,88.47
2022-11-15T13:39:51.434Z,88.62
2022-11-15T13:42:21.953Z,88.61
2022-11-15T13:45:06.381Z,88.67
2022-11-15T13:47:34.946Z,88.49
2022-11-15T13:50:09.706Z,88.64
2022-11-15T13:52:45.120Z,88.62
2022-11-15T13:55:22.624Z,88.69
2022-11-15T13:58:06.840Z,88.76
2022-11-15T14:00:46.442Z,89.90
2022-11-15T14:03:25.625Z,90.44
2022-11-15T14:06:14.184Z,90.29
2022-11-15T14:09:26.573Z,89.01
2022-11-15T14:11:57.397Z,87.84
2022-11-15T14:14:29.699Z,86.82
2022-11-15T14:17:01.995Z,86.26
2022-11-15T14:19:32.519Z,86.30
2022-11-15T14:22:26.508Z,86.42
2022-11-15T14:25:37.371Z,86.63
2022-11-15T14:28:31.066Z,86.45
2022-11-15T14:31:01.701Z,86.57
2022-11-15T14:33:36.513Z,86.53
2022-11-15T14:36:11.543Z,86.72
2022-11-15T14:38:40.040Z,86.86
2022-11-15T14:41:23.886Z,86.98
2022-11-15T14:43:53.573Z,86.97
2022-11-15T14:46:22.077Z,87.01
2022-11-15T14:48:50.431Z,86.85
2022-11-15T14:51:19.939Z,86.79
2022-11-15T14:53:48.574Z,86.75
2022-11-15T14:56:17.727Z,86.61
2022-11-15T14:58:46.125Z,86.77
2022-11-15T15:01:25.601Z,87.11
2022-11-15T15:03:59.244Z,87.40
2022-11-15T15:06:27.878Z,87.55
2022-11-15T15:08:56.159Z,87.63
2022-11-15T15:11:29.004Z,87.90
2022-11-15T15:13:59.313Z,88.42
2022-11-15T15:16:28.514Z,88.56
2022-11-15T15:18:56.836Z,88.67
2022-11-15T15:21:36.876Z,88.77
2022-11-15T15:24:06.182Z,88.94
2022-11-15T15:26:37.388Z,89.03
2022-11-15T15:29:05.877Z,89.12
2022-11-15T15:31:34.463Z,89.32
2022-11-15T15:34:03.170Z,89.31
2022-11-15T15:36:31.506Z,89.38
2022-11-15T15:38:59.834Z,89.78
2022-11-15T15:41:28.339Z,90.23
2022-11-15T15:43:56.682Z,90.61
2022-11-15T15:46:25.621Z,90.92
2022-11-15T15:48:53.986Z,91.34
2022-11-15T15:51:22.318Z,91.71
2022-11-15T15:53:52.661Z,91.84
2022-11-15T15:56:20.953Z,92.25
2022-11-15T15:58:49.296Z,92.47
2022-11-15T16:01:17.876Z,92.55
2022-11-15T16:03:46.185Z,92.75
2022-11-15T16:06:39.449Z,92.80
2022-11-15T16:09:16.105Z,92.85
2022-11-15T16:11:47.496Z,92.76
2022-11-15T16:14:15.835Z,92.79
2022-11-15T16:16:44.322Z,92.94
2022-11-15T16:19:13.217Z,93.10
2022-11-15T16:21:41.630Z,93.37
2022-11-15T16:24:10.372Z,93.65
2022-11-15T16:26:39.379Z,93.51
2022-11-15T16:29:11.146Z,93.41
2022-11-15T16:31:39.807Z,93.37
2022-11-15T16:34:09.774Z,93.31
2022-11-15T16:36:38.174Z,93.29
2022-11-15T16:39:06.879Z,93.47
2022-11-15T16:41:35.130Z,93.72
2022-11-15T16:44:03.510Z,94.19
2022-11-15T16:46:31.943Z,94.54
2022-11-15T16:49:00.255Z,94.88
2022-11-15T16:51:28.550Z,95.01
2022-11-15T16:53:57.152Z,95.11
2022-11-15T16:56:30.665Z,95.18
2022-11-15T16:59:01.296Z,95.20
2022-11-15T17:01:34.002Z,95.35
2022-11-15T17:04:13.218Z,95.47
2022-11-15T17:06:44.248Z,95.48
2022-11-15T17:09:20.680Z,95.48
2022-11-15T17:11:49.243Z,95.55
2022-11-15T17:14:18.865Z,95.58
2022-11-15T17:16:48.805Z,95.71
2022-11-15T17:19:21.833Z,95.92
2022-11-15T17:21:50.358Z,95.92
2022-11-15T17:24:21.156Z,95.74
2022-11-15T17:26:49.772Z,95.38
2022-11-15T17:29:18.575Z,95.06
2022-11-15T17:31:46.941Z,95.23
2022-11-15T17:34:16.172Z,95.55
2022-11-15T17:36:44.478Z,95.68
2022-11-15T17:39:12.784Z,95.93
2022-11-15T17:41:41.325Z,95.98
2022-11-15T17:44:09.600Z,96.13
2022-11-15T17:46:37.961Z,96.07
2022-11-15T17:49:06.761Z,96.23
2022-11-15T17:51:35.187Z,96.30
2022-11-15T17:54:03.708Z,96.39
2022-11-15T17:56:32.102Z,96.76
2022-11-15T17:59:00.881Z,97.14
2022-11-15T18:01:37.761Z,97.33
2022-11-15T18:04:10.086Z,97.70
2022-11-15T18:06:38.559Z,97.95
2022-11-15T18:09:08.521Z,98.08
2022-11-15T18:11:41.050Z,98.20
2022-11-15T18:14:15.614Z,98.20
2022-11-15T18:16:44.225Z,98.48
2022-11-15T18:19:15.922Z,97.94
2022-11-15T18:21:57.751Z,98.04
2022-11-15T18:24:33.602Z,98.78
2022-11-15T18:27:04.899Z,99.21
2022-11-15T18:29:35.555Z,99.05
2022-11-15T18:32:12.342Z,98.95
2022-11-15T18:34:41.045Z,98.91
2022-11-15T18:37:09.627Z,98.83
2022-11-15T18:39:38.386Z,98.84
2022-11-15T18:42:06.921Z,98.84
2022-11-15T18:44:35.456Z,99.14
2022-11-15T18:47:03.972Z,99.05
2022-11-15T18:49:32.383Z,99.19
2022-11-15T18:52:00.860Z,99.32
2022-11-15T18:54:31.311Z,99.27
2022-11-15T18:57:00.333Z,99.23
2022-11-15T18:59:29.676Z,99.32
2022-11-15T19:01:58.064Z,99.49
2022-11-15T19:04:26.603Z,99.62
2022-11-15T19:06:55.169Z,99.50
2022-11-15T19:09:27.386Z,99.33
2022-11-15T19:11:55.802Z,99.05
2022-11-15T19:14:26.860Z,98.97
2022-11-15T19:16:55.660Z,99.09
2022-11-15T19:19:28.462Z,99.15
2022-11-15T19:21:57.674Z,99.29
2022-11-15T19:24:27.389Z,99.59
2022-11-15T19:26:55.997Z,99.62
2022-11-15T19:29:24.352Z,99.70
2022-11-15T19:31:52.724Z,99.74
2022-11-15T19:34:21.004Z,99.94
2022-11-15T19:36:49.329Z,100.00
2022-11-15T19:39:18.584Z,100.00
2022-11-15T19:41:47.734Z,100.00
2022-11-15T19:44:16.093Z,100.00
2022-11-15T19:46:44.629Z,100.00
2022-11-15T19:49:13.149Z,100.00
2022-11-15T19:51:42.753Z,100.00
2022-11-15T19:54:11.343Z,100.00
2022-11-15T19:56:42.461Z,100.00
2022-11-15T19:59:11.969Z,100.00
2022-11-15T20:01:42.169Z,100.00
2022-11-15T20:04:10.496Z,100.00
2022-11-15T20:06:42.489Z,100.00
2022-11-15T20:09:15.999Z,100.00
2022-11-15T20:11:44.999Z,100.00
2022-11-15T20:14:14.009Z,100.00
2022-11-15T20:16:43.262Z,100.00
2022-11-15T20:19:12.814Z,100.00
2022-11-15T20:21:43.690Z,100.00
2022-11-15T20:24:12.018Z,100.00
2022-11-15T20:26:40.361Z,100.00
2022-11-15T20:29:10.060Z,100.00
2022-11-15T20:31:38.773Z,100.00
2022-11-15T20:34:07.539Z,100.00
2022-11-15T20:36:35.907Z,100.00
2022-11-15T20:39:04.283Z,100.00
2022-11-15T20:41:32.782Z,100.00
2022-11-15T20:44:03.158Z,100.00
2022-11-15T20:46:31.589Z,100.00
2022-11-15T20:49:00.380Z,100.00
2022-11-15T20:51:28.738Z,100.00
2022-11-15T20:53:57.292Z,100.00
2022-11-15T20:56:25.729Z,100.00
2022-11-15T20:58:54.984Z,100.00
2022-11-15T21:01:24.917Z,100.00
2022-11-15T21:03:55.409Z,100.00
2022-11-15T21:06:26.591Z,100.00
2022-11-15T21:09:14.681Z,100.00
2022-11-15T21:12:01.956Z,100.00
2022-11-15T21:14:30.397Z,100.00
2022-11-15T21:16:59.527Z,100.00
2022-11-15T21:19:34.042Z,100.00
2022-11-15T21:22:06.190Z,100.00
2022-11-15T21:24:34.570Z,100.00
2022-11-15T21:27:03.094Z,100.00
2022-11-15T21:29:40.762Z,100.00
2022-11-15T21:32:09.779Z,100.00
2022-11-15T21:34:38.256Z,100.00
2022-11-15T21:37:07.528Z,100.00
2022-11-15T21:39:36.130Z,100.00
2022-11-15T21:42:05.067Z,100.00
2022-11-15T21:44:33.668Z,100.00
2022-11-15T21:47:02.265Z,100.00
2022-11-15T21:49:30.661Z,100.00
2022-11-15T21:51:59.072Z,100.00
2022-11-15T21:54:27.360Z,100.00
2022-11-15T21:56:55.668Z,100.00
2022-11-15T21:59:24.164Z,100.00
2022-11-15T22:02:27.837Z,100.00
2022-11-15T22:05:55.646Z,100.00
2022-11-15T22:08:24.667Z,100.00
2022-11-15T22:10:53.788Z,100.00
2022-11-15T22:13:23.689Z,100.00
2022-11-15T22:15:54.763Z,100.00
2022-11-15T22:18:26.762Z,100.00
2022-11-15T22:21:10.503Z,100.00
2022-11-15T22:23:40.505Z,100.00
2022-11-15T22:26:13.606Z,100.00
2022-11-15T22:28:42.421Z,100.00
2022-11-15T22:31:12.247Z,100.00
2022-11-15T22:33:41.117Z,100.00
2022-11-15T22:36:12.884Z,100.00
2022-11-15T22:38:41.723Z,100.00
2022-11-15T22:41:10.507Z,100.00
2022-11-15T22:43:39.378Z,100.00
2022-11-15T22:46:09.499Z,100.00
2022-11-15T22:48:39.120Z,100.00
2022-11-15T22:51:09.630Z,100.00
2022-11-15T22:53:38.423Z,100.00
2022-11-15T22:56:07.751Z,100.00
2022-11-15T22:58:37.059Z,100.00
2022-11-15T23:01:06.702Z,100.00
2022-11-15T23:03:35.738Z,100.00
2022-11-15T23:06:07.291Z,100.00
2022-11-15T23:08:36.564Z,100.00
2022-11-15T23:11:24.612Z,100.00
2022-11-15T23:13:53.719Z,100.00
2022-11-15T23:16:24.012Z,100.00
2022-11-15T23:19:01.617Z,100.00
2022-11-15T23:21:52.057Z,100.00
2022-11-15T23:24:21.599Z,100.00
2022-11-15T23:26:59.697Z,100.00
2022-11-15T23:29:30.059Z,100.00
2022-11-15T23:32:17.378Z,100.00
2022-11-15T23:34:46.549Z,100.00
2022-11-15T23:37:15.864Z,100.00
2022-11-15T23:39:44.624Z,100.00
2022-11-15T23:42:20.196Z,100.00
2022-11-15T23:44:50.827Z,100.00
2022-11-15T23:47:19.716Z,100.00
2022-11-15T23:49:48.467Z,100.00
2022-11-15T23:52:17.449Z,100.00
2022-11-15T23:54:46.435Z,100.00
2022-11-15T23:57:15.270Z,100.00
2022-11-15T23:59:44.144Z,100.00
